sensor_id;sensor_type;location;lat;lon;timestamp;P1;durP1;ratioP1;P2;durP2;ratioP2
53022;SDS011;38913;44.338;11.206;2023-01-15T00:01:30;27.23;;;17.75;;
53022;SDS011;38913;44.338;11.206;2023-01-15T00:03:58;42.50;;;25.60;;
53022;SDS011;38913;44.338;11.206;2023-01-15T00:06:25;36.75;;;23.38;;
53022;SDS011;38913;44.338;11.206;2023-01-15T00:08:51;30.83;;;20.58;;
53022;SDS011;38913;44.338;11.206;2023-01-15T00:11:17;32.03;;;20.38;;
53022;SDS011;38913;44.338;11.206;2023-01-15T00:13:43;30.80;;;19.63;;
53022;SDS011;38913;44.338;11.206;2023-01-15T00:16:13;31.35;;;20.02;;
53022;SDS011;38913;44.338;11.206;2023-01-15T00:18:50;29.83;;;18.80;;
53022;SDS011;38913;44.338;11.206;2023-01-15T00:21:20;28.20;;;18.67;;
53022;SDS011;38913;44.338;11.206;2023-01-15T00:23:47;25.05;;;16.63;;
53022;SDS011;38913;44.338;11.206;2023-01-15T00:26:32;25.75;;;17.15;;
53022;SDS011;38913;44.338;11.206;2023-01-15T00:29:17;28.30;;;17.17;;
53022;SDS011;38913;44.338;11.206;2023-01-15T00:31:43;26.83;;;16.38;;
53022;SDS011;38913;44.338;11.206;2023-01-15T00:34:16;59.63;;;28.05;;
53022;SDS011;38913;44.338;11.206;2023-01-15T00:36:41;35.38;;;20.25;;
53022;SDS011;38913;44.338;11.206;2023-01-15T00:39:07;32.10;;;19.27;;
53022;SDS011;38913;44.338;11.206;2023-01-15T00:41:32;29.23;;;18.00;;
53022;SDS011;38913;44.338;11.206;2023-01-15T00:43:57;27.95;;;16.85;;
53022;SDS011;38913;44.338;11.206;2023-01-15T00:46:23;31.42;;;18.48;;
53022;SDS011;38913;44.338;11.206;2023-01-15T00:48:48;50.95;;;17.90;;
53022;SDS011;38913;44.338;11.206;2023-01-15T00:51:14;66.03;;;16.52;;
53022;SDS011;38913;44.338;11.206;2023-01-15T00:53:39;38.47;;;15.95;;
53022;SDS011;38913;44.338;11.206;2023-01-15T00:56:25;23.42;;;15.80;;
53022;SDS011;38913;44.338;11.206;2023-01-15T00:58:50;34.47;;;16.73;;
53022;SDS011;38913;44.338;11.206;2023-01-15T01:01:16;35.28;;;15.25;;
53022;SDS011;38913;44.338;11.206;2023-01-15T01:03:41;33.15;;;19.27;;
53022;SDS011;38913;44.338;11.206;2023-01-15T01:06:07;26.90;;;16.38;;
53022;SDS011;38913;44.338;11.206;2023-01-15T01:08:34;27.60;;;17.80;;
53022;SDS011;38913;44.338;11.206;2023-01-15T01:11:09;29.02;;;17.95;;
53022;SDS011;38913;44.338;11.206;2023-01-15T01:13:37;58.28;;;17.20;;
53022;SDS011;38913;44.338;11.206;2023-01-15T01:16:03;60.05;;;16.52;;
53022;SDS011;38913;44.338;11.206;2023-01-15T01:18:44;50.00;;;17.20;;
53022;SDS011;38913;44.338;11.206;2023-01-15T01:21:10;31.70;;;15.95;;
53022;SDS011;38913;44.338;11.206;2023-01-15T01:23:35;21.70;;;14.75;;
53022;SDS011;38913;44.338;11.206;2023-01-15T01:26:01;32.60;;;15.70;;
53022;SDS011;38913;44.338;11.206;2023-01-15T01:28:26;25.50;;;16.58;;
53022;SDS011;38913;44.338;11.206;2023-01-15T01:30:52;29.35;;;18.95;;
53022;SDS011;38913;44.338;11.206;2023-01-15T01:33:17;27.42;;;16.83;;
53022;SDS011;38913;44.338;11.206;2023-01-15T01:36:05;25.83;;;16.52;;
53022;SDS011;38913;44.338;11.206;2023-01-15T01:38:31;28.45;;;17.20;;
53022;SDS011;38913;44.338;11.206;2023-01-15T01:40:57;27.15;;;16.80;;
53022;SDS011;38913;44.338;11.206;2023-01-15T01:43:26;25.55;;;16.75;;
53022;SDS011;38913;44.338;11.206;2023-01-15T01:45:53;25.55;;;16.33;;
53022;SDS011;38913;44.338;11.206;2023-01-15T01:48:20;26.48;;;16.70;;
53022;SDS011;38913;44.338;11.206;2023-01-15T01:50:50;26.33;;;16.75;;
53022;SDS011;38913;44.338;11.206;2023-01-15T01:53:21;27.73;;;15.88;;
53022;SDS011;38913;44.338;11.206;2023-01-15T01:55:49;26.25;;;15.98;;
53022;SDS011;38913;44.338;11.206;2023-01-15T01:58:16;24.50;;;15.35;;
53022;SDS011;38913;44.338;11.206;2023-01-15T02:00:44;21.67;;;13.70;;
53022;SDS011;38913;44.338;11.206;2023-01-15T02:03:12;23.67;;;15.10;;
53022;SDS011;38913;44.338;11.206;2023-01-15T02:05:39;27.38;;;16.17;;
53022;SDS011;38913;44.338;11.206;2023-01-15T02:08:10;21.95;;;15.20;;
53022;SDS011;38913;44.338;11.206;2023-01-15T02:10:36;23.50;;;15.40;;
53022;SDS011;38913;44.338;11.206;2023-01-15T02:13:24;24.55;;;16.00;;
53022;SDS011;38913;44.338;11.206;2023-01-15T02:16:06;23.08;;;15.77;;
53022;SDS011;38913;44.338;11.206;2023-01-15T02:27:02;22.23;;;14.35;;
53022;SDS011;38913;44.338;11.206;2023-01-15T02:29:31;21.00;;;13.70;;
53022;SDS011;38913;44.338;11.206;2023-01-15T02:32:00;24.40;;;14.43;;
53022;SDS011;38913;44.338;11.206;2023-01-15T02:34:32;24.85;;;15.38;;
53022;SDS011;38913;44.338;11.206;2023-01-15T02:37:06;35.58;;;16.50;;
53022;SDS011;38913;44.338;11.206;2023-01-15T02:39:35;21.42;;;14.48;;
53022;SDS011;38913;44.338;11.206;2023-01-15T02:42:04;22.75;;;14.48;;
53022;SDS011;38913;44.338;11.206;2023-01-15T02:44:34;25.30;;;15.25;;
53022;SDS011;38913;44.338;11.206;2023-01-15T02:47:04;24.58;;;15.27;;
53022;SDS011;38913;44.338;11.206;2023-01-15T02:49:32;22.70;;;15.00;;
53022;SDS011;38913;44.338;11.206;2023-01-15T02:54:45;20.25;;;13.52;;
53022;SDS011;38913;44.338;11.206;2023-01-15T02:57:14;18.83;;;13.45;;
53022;SDS011;38913;44.338;11.206;2023-01-15T02:59:42;21.83;;;14.55;;
53022;SDS011;38913;44.338;11.206;2023-01-15T03:02:16;20.38;;;14.23;;
53022;SDS011;38913;44.338;11.206;2023-01-15T03:04:55;22.27;;;14.77;;
53022;SDS011;38913;44.338;11.206;2023-01-15T03:07:48;22.55;;;14.85;;
53022;SDS011;38913;44.338;11.206;2023-01-15T03:10:34;17.77;;;12.68;;
53022;SDS011;38913;44.338;11.206;2023-01-15T03:15:38;19.77;;;13.13;;
53022;SDS011;38913;44.338;11.206;2023-01-15T03:18:30;22.63;;;13.20;;
53022;SDS011;38913;44.338;11.206;2023-01-15T03:21:01;22.27;;;13.90;;
53022;SDS011;38913;44.338;11.206;2023-01-15T03:23:34;21.50;;;13.93;;
53022;SDS011;38913;44.338;11.206;2023-01-15T03:26:03;18.42;;;12.55;;
53022;SDS011;38913;44.338;11.206;2023-01-15T03:28:30;19.65;;;12.07;;
53022;SDS011;38913;44.338;11.206;2023-01-15T03:30:59;18.80;;;12.70;;
53022;SDS011;38913;44.338;11.206;2023-01-15T03:33:24;19.95;;;12.93;;
53022;SDS011;38913;44.338;11.206;2023-01-15T03:35:56;19.30;;;12.27;;
53022;SDS011;38913;44.338;11.206;2023-01-15T03:38:29;19.17;;;12.30;;
53022;SDS011;38913;44.338;11.206;2023-01-15T03:41:00;21.52;;;11.98;;
53022;SDS011;38913;44.338;11.206;2023-01-15T03:46:06;18.67;;;12.60;;
53022;SDS011;38913;44.338;11.206;2023-01-15T03:48:43;19.05;;;11.38;;
53022;SDS011;38913;44.338;11.206;2023-01-15T03:51:28;19.00;;;11.90;;
53022;SDS011;38913;44.338;11.206;2023-01-15T03:54:05;19.25;;;12.13;;
53022;SDS011;38913;44.338;11.206;2023-01-15T03:59:32;24.70;;;13.52;;
53022;SDS011;38913;44.338;11.206;2023-01-15T04:02:03;21.88;;;13.30;;
53022;SDS011;38913;44.338;11.206;2023-01-15T04:04:32;19.80;;;12.50;;
53022;SDS011;38913;44.338;11.206;2023-01-15T04:06:58;20.52;;;13.30;;
53022;SDS011;38913;44.338;11.206;2023-01-15T04:09:26;37.47;;;13.18;;
53022;SDS011;38913;44.338;11.206;2023-01-15T04:11:51;37.90;;;13.65;;
53022;SDS011;38913;44.338;11.206;2023-01-15T04:14:17;31.75;;;12.35;;
53022;SDS011;38913;44.338;11.206;2023-01-15T04:16:42;29.02;;;17.10;;
53022;SDS011;38913;44.338;11.206;2023-01-15T04:19:08;22.02;;;13.25;;
53022;SDS011;38913;44.338;11.206;2023-01-15T04:21:33;18.33;;;12.95;;
53022;SDS011;38913;44.338;11.206;2023-01-15T04:23:59;19.58;;;12.85;;
53022;SDS011;38913;44.338;11.206;2023-01-15T04:26:24;23.60;;;13.65;;
53022;SDS011;38913;44.338;11.206;2023-01-15T04:28:50;20.00;;;12.75;;
53022;SDS011;38913;44.338;11.206;2023-01-15T04:31:15;22.80;;;13.77;;
53022;SDS011;38913;44.338;11.206;2023-01-15T04:33:41;17.80;;;12.57;;
53022;SDS011;38913;44.338;11.206;2023-01-15T04:36:06;18.70;;;12.45;;
53022;SDS011;38913;44.338;11.206;2023-01-15T04:38:33;20.55;;;12.77;;
53022;SDS011;38913;44.338;11.206;2023-01-15T04:40:59;20.55;;;13.32;;
53022;SDS011;38913;44.338;11.206;2023-01-15T04:43:45;16.67;;;11.75;;
53022;SDS011;38913;44.338;11.206;2023-01-15T04:46:29;19.88;;;12.82;;
53022;SDS011;38913;44.338;11.206;2023-01-15T04:48:54;78.10;;;14.57;;
53022;SDS011;38913;44.338;11.206;2023-01-15T04:51:20;59.40;;;14.27;;
53022;SDS011;38913;44.338;11.206;2023-01-15T04:53:45;20.05;;;11.75;;
53022;SDS011;38913;44.338;11.206;2023-01-15T04:56:11;18.52;;;12.63;;
53022;SDS011;38913;44.338;11.206;2023-01-15T04:58:36;19.65;;;12.05;;
53022;SDS011;38913;44.338;11.206;2023-01-15T05:01:02;19.80;;;12.85;;
53022;SDS011;38913;44.338;11.206;2023-01-15T05:03:34;20.40;;;13.00;;
53022;SDS011;38913;44.338;11.206;2023-01-15T05:06:00;21.23;;;13.25;;
53022;SDS011;38913;44.338;11.206;2023-01-15T05:08:26;19.27;;;13.13;;
53022;SDS011;38913;44.338;11.206;2023-01-15T05:10:52;19.17;;;12.15;;
53022;SDS011;38913;44.338;11.206;2023-01-15T05:13:17;20.83;;;13.50;;
53022;SDS011;38913;44.338;11.206;2023-01-15T05:15:43;22.85;;;13.43;;
53022;SDS011;38913;44.338;11.206;2023-01-15T05:18:10;77.47;;;14.02;;
53022;SDS011;38913;44.338;11.206;2023-01-15T05:20:40;24.08;;;12.63;;
53022;SDS011;38913;44.338;11.206;2023-01-15T05:23:06;19.83;;;12.65;;
53022;SDS011;38913;44.338;11.206;2023-01-15T05:25:35;20.58;;;11.63;;
53022;SDS011;38913;44.338;11.206;2023-01-15T05:28:01;19.08;;;12.20;;
53022;SDS011;38913;44.338;11.206;2023-01-15T05:30:26;18.10;;;12.30;;
53022;SDS011;38913;44.338;11.206;2023-01-15T05:32:52;23.92;;;12.73;;
53022;SDS011;38913;44.338;11.206;2023-01-15T05:35:17;18.02;;;12.05;;
53022;SDS011;38913;44.338;11.206;2023-01-15T05:37:43;21.23;;;13.70;;
53022;SDS011;38913;44.338;11.206;2023-01-15T05:40:08;17.90;;;12.13;;
53022;SDS011;38913;44.338;11.206;2023-01-15T05:42:34;17.73;;;11.88;;
53022;SDS011;38913;44.338;11.206;2023-01-15T05:45:00;19.77;;;12.15;;
53022;SDS011;38913;44.338;11.206;2023-01-15T05:47:25;17.80;;;11.07;;
53022;SDS011;38913;44.338;11.206;2023-01-15T05:49:51;18.48;;;11.75;;
53022;SDS011;38913;44.338;11.206;2023-01-15T05:52:16;16.95;;;11.23;;
53022;SDS011;38913;44.338;11.206;2023-01-15T05:54:42;25.25;;;11.73;;
53022;SDS011;38913;44.338;11.206;2023-01-15T05:57:08;26.50;;;12.02;;
53022;SDS011;38913;44.338;11.206;2023-01-15T05:59:35;24.65;;;11.48;;
53022;SDS011;38913;44.338;11.206;2023-01-15T06:02:01;15.88;;;10.95;;
53022;SDS011;38913;44.338;11.206;2023-01-15T06:04:26;18.58;;;11.55;;
53022;SDS011;38913;44.338;11.206;2023-01-15T06:06:52;28.15;;;11.77;;
53022;SDS011;38913;44.338;11.206;2023-01-15T06:09:19;19.23;;;11.35;;
53022;SDS011;38913;44.338;11.206;2023-01-15T06:11:47;17.52;;;10.73;;
53022;SDS011;38913;44.338;11.206;2023-01-15T06:14:13;15.20;;;11.10;;
53022;SDS011;38913;44.338;11.206;2023-01-15T06:16:39;14.70;;;10.63;;
53022;SDS011;38913;44.338;11.206;2023-01-15T06:19:05;16.20;;;11.38;;
53022;SDS011;38913;44.338;11.206;2023-01-15T06:21:32;16.95;;;11.73;;
53022;SDS011;38913;44.338;11.206;2023-01-15T06:23:59;16.27;;;12.30;;
53022;SDS011;38913;44.338;11.206;2023-01-15T06:26:24;14.43;;;9.95;;
53022;SDS011;38913;44.338;11.206;2023-01-15T06:28:51;12.85;;;9.73;;
53022;SDS011;38913;44.338;11.206;2023-01-15T06:31:18;15.43;;;10.18;;
53022;SDS011;38913;44.338;11.206;2023-01-15T06:33:44;16.77;;;11.07;;
53022;SDS011;38913;44.338;11.206;2023-01-15T06:36:11;16.25;;;10.60;;
53022;SDS011;38913;44.338;11.206;2023-01-15T06:38:38;16.35;;;10.30;;
53022;SDS011;38913;44.338;11.206;2023-01-15T06:41:05;16.35;;;10.20;;
53022;SDS011;38913;44.338;11.206;2023-01-15T06:43:52;16.80;;;10.05;;
53022;SDS011;38913;44.338;11.206;2023-01-15T06:46:37;13.55;;;9.20;;
53022;SDS011;38913;44.338;11.206;2023-01-15T06:49:26;12.80;;;9.30;;
53022;SDS011;38913;44.338;11.206;2023-01-15T06:51:51;16.83;;;10.40;;
53022;SDS011;38913;44.338;11.206;2023-01-15T06:54:17;15.45;;;10.27;;
53022;SDS011;38913;44.338;11.206;2023-01-15T06:56:42;17.08;;;10.82;;
53022;SDS011;38913;44.338;11.206;2023-01-15T06:59:08;16.75;;;11.98;;
53022;SDS011;38913;44.338;11.206;2023-01-15T07:01:33;18.33;;;13.07;;
53022;SDS011;38913;44.338;11.206;2023-01-15T07:03:58;15.48;;;11.43;;
53022;SDS011;38913;44.338;11.206;2023-01-15T07:06:24;13.88;;;10.15;;
53022;SDS011;38913;44.338;11.206;2023-01-15T07:08:49;12.98;;;9.32;;
53022;SDS011;38913;44.338;11.206;2023-01-15T07:11:16;13.43;;;9.40;;
53022;SDS011;38913;44.338;11.206;2023-01-15T07:13:41;14.30;;;9.77;;
53022;SDS011;38913;44.338;11.206;2023-01-15T07:16:07;13.90;;;9.73;;
53022;SDS011;38913;44.338;11.206;2023-01-15T07:18:50;15.35;;;9.73;;
53022;SDS011;38913;44.338;11.206;2023-01-15T07:21:17;14.73;;;9.35;;
53022;SDS011;38913;44.338;11.206;2023-01-15T07:23:42;13.18;;;9.23;;
53022;SDS011;38913;44.338;11.206;2023-01-15T07:26:08;14.50;;;9.13;;
53022;SDS011;38913;44.338;11.206;2023-01-15T07:28:33;13.77;;;9.25;;
53022;SDS011;38913;44.338;11.206;2023-01-15T07:30:59;14.88;;;9.98;;
53022;SDS011;38913;44.338;11.206;2023-01-15T07:33:25;14.35;;;10.15;;
53022;SDS011;38913;44.338;11.206;2023-01-15T07:35:50;12.68;;;9.10;;
53022;SDS011;38913;44.338;11.206;2023-01-15T07:38:16;17.08;;;10.82;;
53022;SDS011;38913;44.338;11.206;2023-01-15T07:40:42;14.75;;;9.85;;
53022;SDS011;38913;44.338;11.206;2023-01-15T07:43:08;18.08;;;10.43;;
53022;SDS011;38913;44.338;11.206;2023-01-15T07:45:53;15.50;;;10.27;;
53022;SDS011;38913;44.338;11.206;2023-01-15T07:48:38;15.18;;;9.93;;
53022;SDS011;38913;44.338;11.206;2023-01-15T07:51:31;15.88;;;9.48;;
53022;SDS011;38913;44.338;11.206;2023-01-15T07:53:56;13.95;;;9.55;;
53022;SDS011;38913;44.338;11.206;2023-01-15T07:56:22;16.77;;;9.98;;
53022;SDS011;38913;44.338;11.206;2023-01-15T07:58:47;14.82;;;11.02;;
53022;SDS011;38913;44.338;11.206;2023-01-15T08:01:14;13.55;;;9.20;;
53022;SDS011;38913;44.338;11.206;2023-01-15T08:03:39;12.23;;;8.77;;
53022;SDS011;38913;44.338;11.206;2023-01-15T08:06:05;13.70;;;8.52;;
53022;SDS011;38913;44.338;11.206;2023-01-15T08:08:31;16.15;;;9.52;;
53022;SDS011;38913;44.338;11.206;2023-01-15T08:10:59;13.65;;;10.02;;
53022;SDS011;38913;44.338;11.206;2023-01-15T08:13:44;19.52;;;9.50;;
53022;SDS011;38913;44.338;11.206;2023-01-15T08:16:28;18.33;;;12.45;;
53022;SDS011;38913;44.338;11.206;2023-01-15T08:18:53;19.38;;;13.20;;
53022;SDS011;38913;44.338;11.206;2023-01-15T08:21:19;18.27;;;12.80;;
53022;SDS011;38913;44.338;11.206;2023-01-15T08:23:45;18.40;;;13.77;;
53022;SDS011;38913;44.338;11.206;2023-01-15T08:26:11;15.18;;;11.13;;
53022;SDS011;38913;44.338;11.206;2023-01-15T08:28:37;14.65;;;10.25;;
53022;SDS011;38913;44.338;11.206;2023-01-15T08:31:04;13.85;;;9.35;;
53022;SDS011;38913;44.338;11.206;2023-01-15T08:33:30;13.77;;;9.30;;
53022;SDS011;38913;44.338;11.206;2023-01-15T08:35:56;15.00;;;9.77;;
53022;SDS011;38913;44.338;11.206;2023-01-15T08:38:22;14.30;;;10.05;;
53022;SDS011;38913;44.338;11.206;2023-01-15T08:40:51;15.90;;;10.30;;
53022;SDS011;38913;44.338;11.206;2023-01-15T08:43:24;13.13;;;9.23;;
53022;SDS011;38913;44.338;11.206;2023-01-15T08:45:56;15.88;;;9.90;;
53022;SDS011;38913;44.338;11.206;2023-01-15T08:50:52;14.18;;;9.50;;
53022;SDS011;38913;44.338;11.206;2023-01-15T08:53:18;13.57;;;9.43;;
53022;SDS011;38913;44.338;11.206;2023-01-15T08:55:44;12.90;;;9.38;;
53022;SDS011;38913;44.338;11.206;2023-01-15T08:58:10;15.73;;;10.23;;
53022;SDS011;38913;44.338;11.206;2023-01-15T09:00:36;17.67;;;10.50;;
53022;SDS011;38913;44.338;11.206;2023-01-15T09:03:02;15.25;;;10.07;;
53022;SDS011;38913;44.338;11.206;2023-01-15T09:05:28;18.95;;;13.43;;
53022;SDS011;38913;44.338;11.206;2023-01-15T09:07:54;20.67;;;14.88;;
53022;SDS011;38913;44.338;11.206;2023-01-15T09:10:19;19.20;;;13.38;;
53022;SDS011;38913;44.338;11.206;2023-01-15T09:12:45;17.80;;;12.27;;
53022;SDS011;38913;44.338;11.206;2023-01-15T09:15:11;18.02;;;11.98;;
53022;SDS011;38913;44.338;11.206;2023-01-15T09:17:37;15.98;;;11.50;;
53022;SDS011;38913;44.338;11.206;2023-01-15T09:20:06;17.80;;;11.57;;
53022;SDS011;38913;44.338;11.206;2023-01-15T09:22:33;17.60;;;12.00;;
53022;SDS011;38913;44.338;11.206;2023-01-15T09:24:59;17.33;;;12.25;;
53022;SDS011;38913;44.338;11.206;2023-01-15T09:27:26;19.25;;;13.32;;
53022;SDS011;38913;44.338;11.206;2023-01-15T09:29:52;18.75;;;13.30;;
53022;SDS011;38913;44.338;11.206;2023-01-15T09:32:18;21.88;;;13.88;;
53022;SDS011;38913;44.338;11.206;2023-01-15T09:34:43;17.13;;;13.13;;
53022;SDS011;38913;44.338;11.206;2023-01-15T09:37:09;17.13;;;12.40;;
53022;SDS011;38913;44.338;11.206;2023-01-15T09:39:36;18.92;;;12.15;;
53022;SDS011;38913;44.338;11.206;2023-01-15T09:42:46;17.40;;;11.35;;
53022;SDS011;38913;44.338;11.206;2023-01-15T09:53:21;17.90;;;13.20;;
53022;SDS011;38913;44.338;11.206;2023-01-15T09:55:53;21.13;;;14.13;;
53022;SDS011;38913;44.338;11.206;2023-01-15T09:58:36;21.75;;;14.35;;
53022;SDS011;38913;44.338;11.206;2023-01-15T10:01:04;20.40;;;15.02;;
53022;SDS011;38913;44.338;11.206;2023-01-15T10:08:56;23.50;;;17.00;;
53022;SDS011;38913;44.338;11.206;2023-01-15T10:11:33;24.00;;;16.65;;
53022;SDS011;38913;44.338;11.206;2023-01-15T10:14:44;27.20;;;17.75;;
53022;SDS011;38913;44.338;11.206;2023-01-15T10:17:18;25.83;;;16.30;;
53022;SDS011;38913;44.338;11.206;2023-01-15T10:19:51;28.98;;;18.80;;
53022;SDS011;38913;44.338;11.206;2023-01-15T10:22:24;43.80;;;30.23;;
53022;SDS011;38913;44.338;11.206;2023-01-15T10:25:04;46.22;;;26.42;;
53022;SDS011;38913;44.338;11.206;2023-01-15T10:27:38;36.92;;;23.83;;
53022;SDS011;38913;44.338;11.206;2023-01-15T10:32:57;39.58;;;23.30;;
53022;SDS011;38913;44.338;11.206;2023-01-15T10:35:48;38.28;;;23.27;;
53022;SDS011;38913;44.338;11.206;2023-01-15T10:46:33;41.25;;;26.92;;
53022;SDS011;38913;44.338;11.206;2023-01-15T10:49:12;46.67;;;27.60;;
53022;SDS011;38913;44.338;11.206;2023-01-15T10:51:43;43.22;;;28.15;;
53022;SDS011;38913;44.338;11.206;2023-01-15T10:56:52;48.28;;;30.42;;
53022;SDS011;38913;44.338;11.206;2023-01-15T11:02:28;60.88;;;37.10;;
53022;SDS011;38913;44.338;11.206;2023-01-15T11:04:55;59.00;;;37.38;;
53022;SDS011;38913;44.338;11.206;2023-01-15T11:07:21;65.47;;;39.58;;
53022;SDS011;38913;44.338;11.206;2023-01-15T11:09:55;67.60;;;40.65;;
53022;SDS011;38913;44.338;11.206;2023-01-15T11:12:24;71.90;;;42.28;;
53022;SDS011;38913;44.338;11.206;2023-01-15T11:14:52;75.78;;;44.45;;
53022;SDS011;38913;44.338;11.206;2023-01-15T11:17:36;68.60;;;43.28;;
53022;SDS011;38913;44.338;11.206;2023-01-15T11:23:08;73.18;;;46.05;;
53022;SDS011;38913;44.338;11.206;2023-01-15T11:25:36;74.57;;;45.58;;
53022;SDS011;38913;44.338;11.206;2023-01-15T11:28:05;80.47;;;47.17;;
53022;SDS011;38913;44.338;11.206;2023-01-15T11:33:01;82.70;;;49.03;;
53022;SDS011;38913;44.338;11.206;2023-01-15T11:35:31;76.93;;;46.35;;
53022;SDS011;38913;44.338;11.206;2023-01-15T11:38:16;78.72;;;46.22;;
53022;SDS011;38913;44.338;11.206;2023-01-15T11:40:54;82.68;;;47.67;;
53022;SDS011;38913;44.338;11.206;2023-01-15T11:43:25;82.95;;;48.38;;
53022;SDS011;38913;44.338;11.206;2023-01-15T11:46:28;89.82;;;50.63;;
53022;SDS011;38913;44.338;11.206;2023-01-15T11:49:17;91.47;;;50.88;;
53022;SDS011;38913;44.338;11.206;2023-01-15T11:52:04;91.10;;;50.20;;
53022;SDS011;38913;44.338;11.206;2023-01-15T11:54:35;88.00;;;47.80;;
53022;SDS011;38913;44.338;11.206;2023-01-15T11:57:03;93.00;;;50.28;;
53022;SDS011;38913;44.338;11.206;2023-01-15T11:59:30;87.10;;;50.30;;
53022;SDS011;38913;44.338;11.206;2023-01-15T12:02:01;90.20;;;49.95;;
53022;SDS011;38913;44.338;11.206;2023-01-15T12:07:03;101.15;;;51.38;;
53022;SDS011;38913;44.338;11.206;2023-01-15T12:20:10;100.13;;;51.75;;
53022;SDS011;38913;44.338;11.206;2023-01-15T12:26:19;94.75;;;48.55;;
53022;SDS011;38913;44.338;11.206;2023-01-15T12:34:27;102.97;;;51.97;;
53022;SDS011;38913;44.338;11.206;2023-01-15T12:37:20;99.65;;;50.53;;
53022;SDS011;38913;44.338;11.206;2023-01-15T12:39:53;98.68;;;52.60;;
53022;SDS011;38913;44.338;11.206;2023-01-15T12:42:23;100.20;;;51.72;;
53022;SDS011;38913;44.338;11.206;2023-01-15T12:45:09;91.30;;;50.08;;
53022;SDS011;38913;44.338;11.206;2023-01-15T12:58:32;97.07;;;50.78;;
53022;SDS011;38913;44.338;11.206;2023-01-15T13:06:49;93.97;;;51.90;;
53022;SDS011;38913;44.338;11.206;2023-01-15T13:12:02;100.72;;;52.28;;
53022;SDS011;38913;44.338;11.206;2023-01-15T13:14:34;96.75;;;50.53;;
53022;SDS011;38913;44.338;11.206;2023-01-15T13:20:02;104.75;;;53.83;;
53022;SDS011;38913;44.338;11.206;2023-01-15T13:26:04;91.40;;;51.20;;
53022;SDS011;38913;44.338;11.206;2023-01-15T13:28:43;93.50;;;51.00;;
53022;SDS011;38913;44.338;11.206;2023-01-15T13:31:25;93.43;;;54.15;;
53022;SDS011;38913;44.338;11.206;2023-01-15T13:34:20;94.88;;;52.15;;
53022;SDS011;38913;44.338;11.206;2023-01-15T13:37:04;94.47;;;51.30;;
53022;SDS011;38913;44.338;11.206;2023-01-15T13:39:41;89.20;;;49.97;;
53022;SDS011;38913;44.338;11.206;2023-01-15T13:42:14;93.15;;;52.28;;
53022;SDS011;38913;44.338;11.206;2023-01-15T13:44:56;93.20;;;51.15;;
53022;SDS011;38913;44.338;11.206;2023-01-15T13:47:27;92.80;;;52.15;;
53022;SDS011;38913;44.338;11.206;2023-01-15T13:49:57;99.35;;;51.70;;
53022;SDS011;38913;44.338;11.206;2023-01-15T13:52:31;96.88;;;54.15;;
53022;SDS011;38913;44.338;11.206;2023-01-15T13:57:43;98.65;;;53.22;;
53022;SDS011;38913;44.338;11.206;2023-01-15T14:00:25;93.20;;;53.20;;
53022;SDS011;38913;44.338;11.206;2023-01-15T14:02:55;95.28;;;52.30;;
53022;SDS011;38913;44.338;11.206;2023-01-15T14:05:25;99.35;;;52.00;;
53022;SDS011;38913;44.338;11.206;2023-01-15T14:07:53;93.15;;;51.55;;
53022;SDS011;38913;44.338;11.206;2023-01-15T14:24:39;99.75;;;54.20;;
53022;SDS011;38913;44.338;11.206;2023-01-15T14:27:33;106.47;;;55.65;;
53022;SDS011;38913;44.338;11.206;2023-01-15T14:33:08;101.30;;;54.50;;
53022;SDS011;38913;44.338;11.206;2023-01-15T14:35:48;92.75;;;54.35;;
53022;SDS011;38913;44.338;11.206;2023-01-15T14:38:15;95.82;;;51.92;;
53022;SDS011;38913;44.338;11.206;2023-01-15T14:40:56;98.57;;;52.50;;
53022;SDS011;38913;44.338;11.206;2023-01-15T14:43:25;96.03;;;52.17;;
53022;SDS011;38913;44.338;11.206;2023-01-15T14:45:56;94.18;;;53.58;;
53022;SDS011;38913;44.338;11.206;2023-01-15T14:48:37;94.63;;;51.05;;
53022;SDS011;38913;44.338;11.206;2023-01-15T14:51:11;100.35;;;52.97;;
53022;SDS011;38913;44.338;11.206;2023-01-15T14:56:49;97.90;;;53.25;;
53022;SDS011;38913;44.338;11.206;2023-01-15T15:02:00;96.35;;;52.05;;
53022;SDS011;38913;44.338;11.206;2023-01-15T15:07:13;99.63;;;52.35;;
53022;SDS011;38913;44.338;11.206;2023-01-15T15:09:42;98.13;;;55.10;;
53022;SDS011;38913;44.338;11.206;2023-01-15T15:14:46;106.78;;;55.20;;
53022;SDS011;38913;44.338;11.206;2023-01-15T15:17:26;103.65;;;55.85;;
53022;SDS011;38913;44.338;11.206;2023-01-15T15:20:16;105.43;;;56.63;;
53022;SDS011;38913;44.338;11.206;2023-01-15T15:22:43;113.05;;;57.58;;
53022;SDS011;38913;44.338;11.206;2023-01-15T15:25:14;110.70;;;56.70;;
53022;SDS011;38913;44.338;11.206;2023-01-15T15:27:45;109.28;;;55.63;;
53022;SDS011;38913;44.338;11.206;2023-01-15T15:30:10;112.13;;;56.90;;
53022;SDS011;38913;44.338;11.206;2023-01-15T15:32:38;111.30;;;55.83;;
53022;SDS011;38913;44.338;11.206;2023-01-15T15:35:33;110.68;;;53.08;;
53022;SDS011;38913;44.338;11.206;2023-01-15T15:37:52;111.93;;;56.70;;
53022;SDS011;38913;44.338;11.206;2023-01-15T15:40:19;112.35;;;54.97;;
53022;SDS011;38913;44.338;11.206;2023-01-15T15:42:56;108.88;;;55.20;;
53022;SDS011;38913;44.338;11.206;2023-01-15T15:45:53;108.80;;;55.20;;
53022;SDS011;38913;44.338;11.206;2023-01-15T15:48:39;113.78;;;56.05;;
53022;SDS011;38913;44.338;11.206;2023-01-15T15:54:15;117.80;;;54.92;;
53022;SDS011;38913;44.338;11.206;2023-01-15T15:59:35;102.85;;;53.00;;
53022;SDS011;38913;44.338;11.206;2023-01-15T16:02:17;116.47;;;58.13;;
53022;SDS011;38913;44.338;11.206;2023-01-15T16:04:54;115.32;;;58.17;;
53022;SDS011;38913;44.338;11.206;2023-01-15T16:07:26;122.63;;;58.93;;
53022;SDS011;38913;44.338;11.206;2023-01-15T16:09:59;121.15;;;57.13;;
53022;SDS011;38913;44.338;11.206;2023-01-15T16:12:35;124.95;;;59.05;;
53022;SDS011;38913;44.338;11.206;2023-01-15T16:15:17;112.95;;;54.95;;
53022;SDS011;38913;44.338;11.206;2023-01-15T16:18:03;119.13;;;57.28;;
53022;SDS011;38913;44.338;11.206;2023-01-15T16:20:30;121.50;;;57.70;;
53022;SDS011;38913;44.338;11.206;2023-01-15T16:22:58;117.97;;;58.97;;
53022;SDS011;38913;44.338;11.206;2023-01-15T16:25:26;116.07;;;58.42;;
53022;SDS011;38913;44.338;11.206;2023-01-15T16:27:56;119.53;;;59.78;;
53022;SDS011;38913;44.338;11.206;2023-01-15T16:30:23;129.38;;;60.00;;
53022;SDS011;38913;44.338;11.206;2023-01-15T16:32:49;121.10;;;61.15;;
53022;SDS011;38913;44.338;11.206;2023-01-15T16:35:22;122.25;;;61.15;;
53022;SDS011;38913;44.338;11.206;2023-01-15T16:37:58;124.72;;;60.38;;
53022;SDS011;38913;44.338;11.206;2023-01-15T16:45:33;126.90;;;62.10;;
53022;SDS011;38913;44.338;11.206;2023-01-15T16:48:09;128.40;;;61.72;;
53022;SDS011;38913;44.338;11.206;2023-01-15T16:50:39;123.68;;;61.10;;
53022;SDS011;38913;44.338;11.206;2023-01-15T16:53:27;132.85;;;62.10;;
53022;SDS011;38913;44.338;11.206;2023-01-15T16:55:54;127.75;;;61.08;;
53022;SDS011;38913;44.338;11.206;2023-01-15T16:58:30;122.85;;;61.20;;